Terminal Aerodrome Forecast
Issued by NWS

Home | Current Version | Previous Version | Text Only | Print | Product List | Glossary On
Versions: 1 2 3 4 5 6 7 8 9 10 11 12 13 14
000
FTUS42 TJSJ 311100
TAFNCM
TAF
TNCM 311135Z 3112/0112 11008KT P6SM VCSH SCT020
     FM311630 12012KT P6SM VCTS SCT018 BKN040CB
     FM312300 10006KT P6SM FEW022=

USA.gov is the U.S. government's official web portal to all federal, state and local government web resources and services.